Time;durP1;ratioP1;P1;durP2;ratioP2;P2;SDS_P1;SDS_P2;PMS_P1;PMS_P2;Temp;Humidity;BMP_temperature;BMP_pressure;BME280_temperature;BME280_humidity;BME280_pressure;Samples;Min_cycle;Max_cycle;Signal;HPM_P1;HPM_P2
2022/10/13 00:01:12;;;;;;;23.90;4.05;;;;;;;;;;4994042;28;20236;-57
2022/10/13 00:03:40;;;;;;;29.73;5.07;;;;;;;;;;5011609;28;20034;-57
2022/10/13 00:06:08;;;;;;;25.80;4.82;;;;;;;;;;5011478;28;20484;-57
2022/10/13 00:08:36;;;;;;;23.77;4.68;;;;;;;;;;5011586;28;20494;-57
2022/10/13 00:11:09;;;;;;;31.13;4.82;;;;;;;;;;4994665;28;20018;-57
2022/10/13 00:13:36;;;;;;;28.25;4.60;;;;;;;;;;5010511;28;20384;-55
2022/10/13 00:16:03;;;;;;;23.52;3.92;;;;;;;;;;5010442;28;20018;-58
2022/10/13 00:18:30;;;;;;;25.55;4.60;;;;;;;;;;5010858;28;20068;-56
2022/10/13 00:20:57;;;;;;;24.00;4.13;;;;;;;;;;5007823;28;20022;-51
2022/10/13 00:23:24;;;;;;;29.38;4.43;;;;;;;;;;5008664;28;20026;-57
2022/10/13 00:25:51;;;;;;;30.27;4.93;;;;;;;;;;5009573;28;20037;-57
2022/10/13 00:28:20;;;;;;;33.35;5.57;;;;;;;;;;4991623;28;20026;-57
2022/10/13 00:30:47;;;;;;;23.98;5.40;;;;;;;;;;5009586;28;20120;-59
2022/10/13 00:33:14;;;;;;;30.30;5.45;;;;;;;;;;5009998;28;20037;-57
2022/10/13 00:35:46;;;;;;;35.60;5.22;;;;;;;;;;5008199;28;20026;-57
2022/10/13 00:38:13;;;;;;;31.20;5.60;;;;;;;;;;5009743;28;20062;-57
2022/10/13 00:40:51;;;;;;;35.53;6.40;;;;;;;;;;5009598;28;20488;-59
2022/10/13 00:43:20;;;;;;;23.90;4.82;;;;;;;;;;5009515;28;20045;-58
2022/10/13 00:45:50;;;;;;;29.25;6.15;;;;;;;;;;5008382;28;20107;-56
2022/10/13 00:48:19;;;;;;;32.53;5.80;;;;;;;;;;5009991;28;20037;-58
2022/10/13 00:50:46;;;;;;;48.95;7.53;;;;;;;;;;5009640;28;20030;-58
2022/10/13 00:53:14;;;;;;;91.72;13.13;;;;;;;;;;5010630;28;20049;-56
2022/10/13 00:55:42;;;;;;;146.95;17.45;;;;;;;;;;5010641;28;20846;-58
2022/10/13 00:58:10;;;;;;;109.10;15.27;;;;;;;;;;5011521;28;20030;-58
2022/10/13 01:00:37;;;;;;;163.60;20.70;;;;;;;;;;5009856;28;20022;-56
2022/10/13 01:03:04;;;;;;;139.23;20.30;;;;;;;;;;5010368;28;20073;-57
2022/10/13 01:05:31;;;;;;;180.13;29.35;;;;;;;;;;5010998;28;20026;-57
2022/10/13 01:07:59;;;;;;;209.52;53.88;;;;;;;;;;5010480;28;20594;-58
2022/10/13 01:10:44;;;;;;;389.98;109.38;;;;;;;;;;5006640;28;20034;-58
2022/10/13 01:13:14;;;;;;;386.25;119.18;;;;;;;;;;5010745;28;20042;-59
2022/10/13 01:15:54;;;;;;;420.80;128.23;;;;;;;;;;5009577;28;20034;-54
2022/10/13 01:18:21;;;;;;;420.50;132.02;;;;;;;;;;5009108;28;20080;-58
2022/10/13 01:20:55;;;;;;;418.35;125.68;;;;;;;;;;5011787;28;20125;-57
2022/10/13 01:23:28;;;;;;;386.30;119.85;;;;;;;;;;5012993;28;20037;-59
2022/10/13 01:25:58;;;;;;;373.35;120.13;;;;;;;;;;5011831;28;20069;-59
2022/10/13 01:28:37;;;;;;;392.80;108.72;;;;;;;;;;5014001;28;20026;-58
2022/10/13 01:31:15;;;;;;;349.92;109.47;;;;;;;;;;5010606;28;20026;-59
2022/10/13 01:33:42;;;;;;;334.70;106.43;;;;;;;;;;5012698;28;20488;-58
2022/10/13 01:36:15;;;;;;;314.38;104.60;;;;;;;;;;5014543;28;20483;-58
2022/10/13 01:38:42;;;;;;;315.80;92.32;;;;;;;;;;5014167;28;20038;-59
2022/10/13 01:41:18;;;;;;;313.48;95.05;;;;;;;;;;5013620;28;20048;-59
2022/10/13 01:43:49;;;;;;;291.67;92.60;;;;;;;;;;5009566;28;20046;-55
2022/10/13 01:46:18;;;;;;;293.60;93.32;;;;;;;;;;5014306;28;20053;-55
2022/10/13 01:48:45;;;;;;;255.50;86.25;;;;;;;;;;5014704;28;20046;-54
2022/10/13 01:51:14;;;;;;;254.05;82.25;;;;;;;;;;5014688;28;20029;-55
2022/10/13 01:53:42;;;;;;;266.77;80.07;;;;;;;;;;5003299;28;20026;-55
2022/10/13 01:56:09;;;;;;;304.88;81.60;;;;;;;;;;5011965;28;20412;-56
2022/10/13 01:58:37;;;;;;;463.13;89.38;;;;;;;;;;5014145;28;20038;-56
2022/10/13 02:01:22;;;;;;;441.25;81.20;;;;;;;;;;5014165;28;20030;-57
2022/10/13 02:03:56;;;;;;;333.92;72.93;;;;;;;;;;5014475;28;20361;-56
2022/10/13 02:06:28;;;;;;;344.98;74.80;;;;;;;;;;5014849;28;20073;-56
2022/10/13 02:09:01;;;;;;;396.17;73.15;;;;;;;;;;5013885;28;20556;-56
2022/10/13 02:11:28;;;;;;;310.92;62.10;;;;;;;;;;5012630;28;20140;-59
2022/10/13 02:14:04;;;;;;;324.00;63.05;;;;;;;;;;5013529;28;20041;-55
2022/10/13 02:16:34;;;;;;;320.05;58.17;;;;;;;;;;5013613;28;20441;-58
2022/10/13 02:19:02;;;;;;;288.63;57.42;;;;;;;;;;5013636;28;20044;-58
2022/10/13 02:21:29;;;;;;;273.83;51.88;;;;;;;;;;5012626;28;20036;-57
2022/10/13 02:23:57;;;;;;;199.82;46.88;;;;;;;;;;5012174;28;20041;-59
2022/10/13 02:26:24;;;;;;;248.15;48.15;;;;;;;;;;5012387;28;20548;-57
2022/10/13 02:28:52;;;;;;;192.30;41.53;;;;;;;;;;5012045;28;20500;-56
2022/10/13 02:31:19;;;;;;;202.73;40.63;;;;;;;;;;5005252;28;20033;-58
2022/10/13 02:33:46;;;;;;;173.18;38.15;;;;;;;;;;5013234;28;20475;-56
2022/10/13 02:36:13;;;;;;;164.35;34.15;;;;;;;;;;5013315;28;20579;-58
2022/10/13 02:38:40;;;;;;;158.52;34.33;;;;;;;;;;5012994;28;20064;-54
2022/10/13 02:41:07;;;;;;;170.88;34.72;;;;;;;;;;5008352;28;20715;-56
2022/10/13 02:43:36;;;;;;;140.63;29.98;;;;;;;;;;5013310;28;20508;-55
2022/10/13 02:46:03;;;;;;;145.02;29.88;;;;;;;;;;4993516;28;20032;-56
2022/10/13 02:48:30;;;;;;;134.48;28.08;;;;;;;;;;5007782;28;20127;-56
2022/10/13 02:50:57;;;;;;;115.78;25.58;;;;;;;;;;5010958;28;20105;-56
2022/10/13 02:53:24;;;;;;;114.78;24.73;;;;;;;;;;5002984;28;20475;-57
2022/10/13 02:55:51;;;;;;;107.05;24.23;;;;;;;;;;5002499;28;20105;-56
2022/10/13 02:58:18;;;;;;;106.50;24.42;;;;;;;;;;5004765;28;20038;-57
2022/10/13 03:00:45;;;;;;;96.95;22.60;;;;;;;;;;5005165;28;20048;-55
2022/10/13 03:03:15;;;;;;;108.38;21.75;;;;;;;;;;5003398;28;20432;-58
2022/10/13 03:05:42;;;;;;;103.70;23.90;;;;;;;;;;5013088;28;20178;-58
2022/10/13 03:08:09;;;;;;;103.72;23.23;;;;;;;;;;5014303;28;20092;-58
2022/10/13 03:10:36;;;;;;;96.70;23.05;;;;;;;;;;5014111;28;20065;-57
2022/10/13 03:13:03;;;;;;;98.03;22.20;;;;;;;;;;5014364;28;20040;-57
2022/10/13 03:15:30;;;;;;;103.93;23.08;;;;;;;;;;5014111;28;20037;-57
2022/10/13 03:17:57;;;;;;;86.03;21.85;;;;;;;;;;5014295;28;20112;-57
2022/10/13 03:20:24;;;;;;;88.70;20.45;;;;;;;;;;5013859;28;20030;-57
2022/10/13 03:22:51;;;;;;;82.13;20.40;;;;;;;;;;5014143;28;20472;-57
2022/10/13 03:25:18;;;;;;;85.85;20.05;;;;;;;;;;5013965;28;20033;-58
2022/10/13 03:27:45;;;;;;;75.88;19.75;;;;;;;;;;5014171;28;20034;-57
2022/10/13 03:30:12;;;;;;;68.35;19.13;;;;;;;;;;5013904;28;20018;-57
2022/10/13 03:32:39;;;;;;;73.50;19.35;;;;;;;;;;5013774;28;20049;-57
2022/10/13 03:35:06;;;;;;;68.13;17.88;;;;;;;;;;5013904;28;20036;-57
2022/10/13 03:37:33;;;;;;;72.50;17.83;;;;;;;;;;5013839;28;20033;-57
2022/10/13 03:40:00;;;;;;;66.97;16.80;;;;;;;;;;5013577;28;20034;-58
2022/10/13 03:42:27;;;;;;;65.72;17.38;;;;;;;;;;5013071;28;20160;-57
2022/10/13 03:44:54;;;;;;;59.17;16.17;;;;;;;;;;5013186;28;20085;-58
2022/10/13 03:47:21;;;;;;;52.90;15.38;;;;;;;;;;5013446;28;20026;-57
2022/10/13 03:49:48;;;;;;;53.75;16.52;;;;;;;;;;5013558;28;20033;-57
2022/10/13 03:52:15;;;;;;;57.72;15.80;;;;;;;;;;5013645;28;20045;-57
2022/10/13 03:54:42;;;;;;;55.20;15.43;;;;;;;;;;5013510;28;20036;-57
2022/10/13 03:57:09;;;;;;;53.97;14.43;;;;;;;;;;5013596;28;20030;-57
2022/10/13 03:59:36;;;;;;;48.47;14.68;;;;;;;;;;5013242;28;20802;-57
2022/10/13 04:02:03;;;;;;;53.38;14.68;;;;;;;;;;5013421;28;20054;-57
2022/10/13 04:04:30;;;;;;;44.38;12.93;;;;;;;;;;5013423;28;20074;-57
2022/10/13 04:06:57;;;;;;;43.92;13.07;;;;;;;;;;5013429;28;20484;-57
2022/10/13 04:09:24;;;;;;;50.65;12.77;;;;;;;;;;5013337;28;20018;-57
2022/10/13 04:11:51;;;;;;;42.58;12.50;;;;;;;;;;5013237;28;20476;-58
2022/10/13 04:14:19;;;;;;;44.25;13.25;;;;;;;;;;5013340;28;20030;-57
2022/10/13 04:16:46;;;;;;;40.78;12.88;;;;;;;;;;5013245;28;20026;-57
2022/10/13 04:19:14;;;;;;;44.55;12.70;;;;;;;;;;5013128;28;20491;-57
2022/10/13 04:21:41;;;;;;;40.22;12.60;;;;;;;;;;5013176;28;20416;-57
2022/10/13 04:24:09;;;;;;;41.08;11.68;;;;;;;;;;5013138;28;20152;-57
2022/10/13 04:26:36;;;;;;;38.50;11.60;;;;;;;;;;5013139;28;20022;-57
2022/10/13 04:29:05;;;;;;;39.47;11.35;;;;;;;;;;5013010;28;20034;-57
2022/10/13 04:31:32;;;;;;;39.95;11.15;;;;;;;;;;5013114;28;20025;-58
2022/10/13 04:33:59;;;;;;;37.75;11.20;;;;;;;;;;5013081;28;20025;-56
2022/10/13 04:36:26;;;;;;;34.92;11.27;;;;;;;;;;5013021;28;20026;-57
2022/10/13 04:38:54;;;;;;;26.92;9.95;;;;;;;;;;5012926;28;20076;-57
2022/10/13 04:41:22;;;;;;;34.35;11.15;;;;;;;;;;5012897;28;20053;-57
2022/10/13 04:43:49;;;;;;;33.63;9.82;;;;;;;;;;5012648;28;20042;-58
2022/10/13 04:46:18;;;;;;;32.13;10.07;;;;;;;;;;5012952;28;20029;-58
2022/10/13 04:48:45;;;;;;;27.25;9.40;;;;;;;;;;5012780;28;20037;-57
2022/10/13 04:51:13;;;;;;;33.38;9.43;;;;;;;;;;5012895;28;20022;-57
2022/10/13 04:53:40;;;;;;;30.33;9.02;;;;;;;;;;5012779;28;20026;-57
2022/10/13 04:56:09;;;;;;;35.03;8.70;;;;;;;;;;5012468;28;20112;-57
2022/10/13 04:58:37;;;;;;;31.35;9.15;;;;;;;;;;5012748;28;20026;-57
2022/10/13 05:01:05;;;;;;;25.48;8.20;;;;;;;;;;5012932;28;20030;-57
2022/10/13 05:03:32;;;;;;;30.67;9.30;;;;;;;;;;5012551;28;20042;-57
2022/10/13 05:06:00;;;;;;;23.50;8.23;;;;;;;;;;5012702;28;20022;-58
2022/10/13 05:08:26;;;;;;;21.42;7.72;;;;;;;;;;5012680;28;20026;-57
2022/10/13 05:10:57;;;;;;;23.27;8.05;;;;;;;;;;5012577;28;20065;-57
2022/10/13 05:13:25;;;;;;;23.05;7.40;;;;;;;;;;5012665;28;20030;-56
2022/10/13 05:15:52;;;;;;;22.02;7.85;;;;;;;;;;5012695;28;20121;-55
2022/10/13 05:18:19;;;;;;;20.90;7.38;;;;;;;;;;5012558;28;20034;-56
2022/10/13 05:20:46;;;;;;;20.33;6.63;;;;;;;;;;5012396;28;20033;-57
2022/10/13 05:23:13;;;;;;;21.50;7.10;;;;;;;;;;5012485;28;20034;-56
2022/10/13 05:25:40;;;;;;;21.70;7.15;;;;;;;;;;5012590;28;20109;-56
2022/10/13 05:28:08;;;;;;;23.10;7.15;;;;;;;;;;5012455;28;20476;-57
2022/10/13 05:30:35;;;;;;;20.20;7.45;;;;;;;;;;5012280;28;20036;-57
2022/10/13 05:33:02;;;;;;;20.52;6.28;;;;;;;;;;5012311;28;20381;-55
2022/10/13 05:35:29;;;;;;;23.40;6.68;;;;;;;;;;5012557;28;20037;-56
2022/10/13 05:37:56;;;;;;;17.67;5.93;;;;;;;;;;5012218;28;20101;-57
2022/10/13 05:40:23;;;;;;;15.68;5.90;;;;;;;;;;5012346;28;20053;-57
2022/10/13 05:42:50;;;;;;;17.55;6.00;;;;;;;;;;5012250;28;20506;-57
2022/10/13 05:45:19;;;;;;;16.55;5.70;;;;;;;;;;5012124;28;20573;-57
2022/10/13 05:47:46;;;;;;;15.57;5.45;;;;;;;;;;5012374;28;20100;-55
2022/10/13 05:50:13;;;;;;;23.23;6.53;;;;;;;;;;5012234;28;20022;-57
2022/10/13 05:52:41;;;;;;;18.00;5.93;;;;;;;;;;5012299;28;20048;-57
2022/10/13 05:55:09;;;;;;;20.65;5.47;;;;;;;;;;5012247;28;20022;-56
2022/10/13 05:57:39;;;;;;;18.63;5.40;;;;;;;;;;5012152;28;20032;-56
2022/10/13 06:00:10;;;;;;;16.90;5.72;;;;;;;;;;5011898;28;20062;-56
2022/10/13 06:02:41;;;;;;;17.38;6.22;;;;;;;;;;5024909;28;20041;-58
2022/10/13 06:05:12;;;;;;;13.80;5.03;;;;;;;;;;5031836;28;20369;-57
2022/10/13 06:07:39;;;;;;;14.93;4.95;;;;;;;;;;5034494;28;20037;-57
2022/10/13 06:10:06;;;;;;;12.73;4.75;;;;;;;;;;5017420;28;20037;-55
2022/10/13 06:12:33;;;;;;;12.30;4.45;;;;;;;;;;5035444;28;20506;-56
2022/10/13 06:15:00;;;;;;;11.75;4.57;;;;;;;;;;5035379;28;20049;-57
2022/10/13 06:17:27;;;;;;;10.77;4.40;;;;;;;;;;5035343;28;20026;-57
2022/10/13 06:19:54;;;;;;;13.15;4.38;;;;;;;;;;5035233;28;20098;-58
2022/10/13 06:22:21;;;;;;;12.85;4.78;;;;;;;;;;5035101;28;20143;-57
2022/10/13 06:24:48;;;;;;;14.45;4.45;;;;;;;;;;5035223;28;20052;-56
2022/10/13 06:27:15;;;;;;;13.57;4.25;;;;;;;;;;5034894;28;20069;-57
2022/10/13 06:29:42;;;;;;;11.52;4.10;;;;;;;;;;5035062;28;20045;-57
2022/10/13 06:32:09;;;;;;;11.05;3.78;;;;;;;;;;5035014;28;20029;-58
2022/10/13 06:34:36;;;;;;;12.75;4.03;;;;;;;;;;5034761;28;20029;-57
2022/10/13 06:37:03;;;;;;;12.20;4.53;;;;;;;;;;5034943;28;20100;-57
2022/10/13 06:39:30;;;;;;;12.27;3.92;;;;;;;;;;5034797;28;20074;-57
2022/10/13 06:41:57;;;;;;;12.27;3.67;;;;;;;;;;5034793;28;20026;-57
2022/10/13 06:44:24;;;;;;;7.63;3.50;;;;;;;;;;5034499;28;20050;-57
2022/10/13 06:46:50;;;;;;;10.13;3.40;;;;;;;;;;5034760;28;20029;-57
2022/10/13 06:49:18;;;;;;;9.70;3.45;;;;;;;;;;5034697;28;20422;-57
2022/10/13 06:51:45;;;;;;;8.70;3.15;;;;;;;;;;5034673;28;20033;-56
2022/10/13 06:54:12;;;;;;;9.32;3.28;;;;;;;;;;5034473;28;20032;-57
2022/10/13 06:56:39;;;;;;;11.10;2.72;;;;;;;;;;5034553;28;20021;-57
2022/10/13 06:59:05;;;;;;;11.63;3.38;;;;;;;;;;5034364;28;20033;-57
2022/10/13 07:01:32;;;;;;;6.97;2.85;;;;;;;;;;5034473;28;20026;-57
2022/10/13 07:03:59;;;;;;;7.10;2.60;;;;;;;;;;5034272;28;20561;-58
2022/10/13 07:06:27;;;;;;;6.93;2.97;;;;;;;;;;5034318;28;20034;-57
2022/10/13 07:08:54;;;;;;;7.57;2.60;;;;;;;;;;5034259;28;20037;-57
2022/10/13 07:11:21;;;;;;;8.32;2.83;;;;;;;;;;5034226;28;20022;-57
2022/10/13 07:13:48;;;;;;;10.10;2.80;;;;;;;;;;5034151;28;20037;-58
2022/10/13 07:16:15;;;;;;;10.00;2.38;;;;;;;;;;5034375;28;20091;-57
2022/10/13 07:18:42;;;;;;;6.35;2.53;;;;;;;;;;5033901;28;20514;-57
2022/10/13 07:21:09;;;;;;;6.45;2.28;;;;;;;;;;5034173;28;20391;-57
2022/10/13 07:23:36;;;;;;;6.88;2.40;;;;;;;;;;5033870;28;20029;-57
2022/10/13 07:26:07;;;;;;;8.57;2.38;;;;;;;;;;5034066;28;20038;-57
2022/10/13 07:28:34;;;;;;;5.25;2.17;;;;;;;;;;5033884;28;20034;-58
2022/10/13 07:31:06;;;;;;;5.22;2.28;;;;;;;;;;5033853;28;20044;-57
2022/10/13 07:33:33;;;;;;;6.95;2.15;;;;;;;;;;5033948;28;20060;-57
2022/10/13 07:36:00;;;;;;;6.60;1.85;;;;;;;;;;5033758;28;20026;-57
2022/10/13 07:38:27;;;;;;;6.13;2.42;;;;;;;;;;5033593;28;20151;-57
2022/10/13 07:40:54;;;;;;;5.50;2.40;;;;;;;;;;5033689;28;20527;-58
2022/10/13 07:43:21;;;;;;;5.40;1.90;;;;;;;;;;5033353;28;20108;-57
2022/10/13 07:45:48;;;;;;;5.40;2.08;;;;;;;;;;5033508;28;20028;-57
2022/10/13 07:48:15;;;;;;;4.65;2.13;;;;;;;;;;5033505;28;20463;-57
2022/10/13 07:50:42;;;;;;;3.55;1.85;;;;;;;;;;5033281;28;20123;-57
2022/10/13 07:53:09;;;;;;;3.50;1.70;;;;;;;;;;5033501;28;20029;-57
2022/10/13 07:55:36;;;;;;;3.90;1.73;;;;;;;;;;5033423;28;20115;-56
2022/10/13 07:58:04;;;;;;;4.80;1.95;;;;;;;;;;5033444;28;20032;-57
2022/10/13 08:00:31;;;;;;;3.92;1.77;;;;;;;;;;5033076;28;20033;-57
2022/10/13 08:02:58;;;;;;;4.28;1.52;;;;;;;;;;5033218;28;20072;-57
2022/10/13 08:05:25;;;;;;;4.43;1.50;;;;;;;;;;5033370;28;20014;-58
2022/10/13 08:07:52;;;;;;;6.45;1.67;;;;;;;;;;5033296;28;20406;-57
2022/10/13 08:10:20;;;;;;;3.75;1.40;;;;;;;;;;5033145;28;20025;-57
2022/10/13 08:12:47;;;;;;;4.60;1.50;;;;;;;;;;5033250;28;20108;-57
2022/10/13 08:15:14;;;;;;;4.70;1.65;;;;;;;;;;5033028;28;20029;-57
2022/10/13 08:17:41;;;;;;;5.78;2.10;;;;;;;;;;5033068;28;20021;-57
2022/10/13 08:20:08;;;;;;;3.83;1.40;;;;;;;;;;5032920;28;20364;-57
2022/10/13 08:22:35;;;;;;;5.05;1.77;;;;;;;;;;5032964;28;20750;-57
2022/10/13 08:25:02;;;;;;;3.60;1.42;;;;;;;;;;5032963;28;20068;-57
2022/10/13 08:27:29;;;;;;;3.47;1.52;;;;;;;;;;5032895;28;20021;-57
2022/10/13 08:29:56;;;;;;;6.10;1.42;;;;;;;;;;5032187;28;20025;-57
2022/10/13 08:32:23;;;;;;;4.65;1.73;;;;;;;;;;5032919;28;20171;-57
2022/10/13 08:34:50;;;;;;;4.75;1.55;;;;;;;;;;5032762;28;20080;-58
2022/10/13 08:37:20;;;;;;;3.85;1.50;;;;;;;;;;5032861;28;20047;-57
2022/10/13 08:39:47;;;;;;;4.95;1.70;;;;;;;;;;5032443;28;20034;-57
2022/10/13 08:42:17;;;;;;;3.63;1.52;;;;;;;;;;5032699;28;20024;-57
2022/10/13 08:44:49;;;;;;;3.80;1.33;;;;;;;;;;5032398;28;20411;-55
2022/10/13 08:47:28;;;;;;;2.50;1.15;;;;;;;;;;5032709;28;20025;-57
2022/10/13 08:49:56;;;;;;;3.45;1.30;;;;;;;;;;5032514;28;20108;-55
2022/10/13 08:52:25;;;;;;;3.25;1.30;;;;;;;;;;5032614;28;20115;-56
2022/10/13 08:54:53;;;;;;;4.95;1.58;;;;;;;;;;5032847;28;20026;-57
2022/10/13 08:57:20;;;;;;;3.63;1.00;;;;;;;;;;5032532;28;20021;-56
2022/10/13 08:59:47;;;;;;;3.13;1.45;;;;;;;;;;5032277;28;20026;-57
2022/10/13 09:02:22;;;;;;;4.32;1.30;;;;;;;;;;5032507;28;20053;-56
2022/10/13 09:04:50;;;;;;;3.15;1.27;;;;;;;;;;5032491;28;20076;-56
2022/10/13 09:07:28;;;;;;;4.90;1.23;;;;;;;;;;5032511;28;20503;-56
2022/10/13 09:09:55;;;;;;;4.53;0.95;;;;;;;;;;5032421;28;20029;-56
2022/10/13 09:12:23;;;;;;;2.25;1.10;;;;;;;;;;5032436;28;20022;-55
2022/10/13 09:15:17;;;;;;;3.17;1.00;;;;;;;;;;5032255;28;20030;-58
2022/10/13 09:17:44;;;;;;;3.88;1.30;;;;;;;;;;5029272;28;20041;-55
2022/10/13 09:20:20;;;;;;;5.68;1.35;;;;;;;;;;5032116;28;20084;-56
2022/10/13 09:23:07;;;;;;;3.45;1.10;;;;;;;;;;5032165;28;20029;-56
2022/10/13 09:25:44;;;;;;;2.05;1.10;;;;;;;;;;5018960;28;20041;-55
2022/10/13 09:28:16;;;;;;;5.30;1.10;;;;;;;;;;5032099;28;20041;-57
2022/10/13 09:30:45;;;;;;;4.50;1.23;;;;;;;;;;5032326;28;20022;-57
2022/10/13 09:33:12;;;;;;;2.60;1.13;;;;;;;;;;5032008;28;20381;-57
2022/10/13 09:35:41;;;;;;;4.55;1.30;;;;;;;;;;5032298;28;20057;-57
2022/10/13 09:38:18;;;;;;;4.57;1.38;;;;;;;;;;5032137;28;20030;-57
2022/10/13 09:41:05;;;;;;;4.85;1.20;;;;;;;;;;5031995;28;20108;-57
2022/10/13 09:43:34;;;;;;;1.60;0.90;;;;;;;;;;5035756;28;20532;-57
2022/10/13 09:46:04;;;;;;;3.35;1.10;;;;;;;;;;5035892;28;20097;-57
2022/10/13 09:48:36;;;;;;;4.68;1.30;;;;;;;;;;5035752;28;20108;-58
2022/10/13 09:51:03;;;;;;;4.30;1.45;;;;;;;;;;5035810;28;20507;-57
2022/10/13 09:53:40;;;;;;;7.10;1.08;;;;;;;;;;5035676;28;20563;-58
2022/10/13 09:56:09;;;;;;;3.15;1.20;;;;;;;;;;5035681;28;20525;-58
2022/10/13 09:58:40;;;;;;;6.53;1.40;;;;;;;;;;5035624;28;20104;-58
2022/10/13 10:01:10;;;;;;;3.80;0.90;;;;;;;;;;5035673;28;20037;-57
2022/10/13 10:03:38;;;;;;;6.00;1.30;;;;;;;;;;5035575;28;20471;-57
2022/10/13 10:06:12;;;;;;;2.90;1.08;;;;;;;;;;5035497;28;20033;-58
2022/10/13 10:08:45;;;;;;;7.28;1.20;;;;;;;;;;5035482;28;20109;-57
2022/10/13 10:11:18;;;;;;;3.80;1.05;;;;;;;;;;5035159;28;20037;-58
2022/10/13 10:13:45;;;;;;;3.35;1.00;;;;;;;;;;5035332;28;20112;-58
2022/10/13 10:16:12;;;;;;;3.20;1.00;;;;;;;;;;5035399;28;20021;-58
2022/10/13 10:18:39;;;;;;;3.47;1.00;;;;;;;;;;5035196;28;20025;-57
2022/10/13 10:21:08;;;;;;;4.53;1.00;;;;;;;;;;5035300;28;20029;-57
2022/10/13 10:23:39;;;;;;;4.07;0.88;;;;;;;;;;5035128;28;20042;-58
2022/10/13 10:26:18;;;;;;;3.13;1.05;;;;;;;;;;5035257;28;20036;-60
2022/10/13 10:28:48;;;;;;;4.22;1.05;;;;;;;;;;5035010;28;20030;-60
2022/10/13 10:31:33;;;;;;;9.65;1.25;;;;;;;;;;5035147;28;20040;-58
2022/10/13 10:34:03;;;;;;;5.32;1.10;;;;;;;;;;5035079;28;20083;-57
2022/10/13 10:36:52;;;;;;;3.92;1.00;;;;;;;;;;5035030;28;20029;-58
2022/10/13 10:39:36;;;;;;;2.40;0.85;;;;;;;;;;5034801;28;20502;-58
2022/10/13 10:42:07;;;;;;;7.22;1.30;;;;;;;;;;5034866;28;20075;-58
2022/10/13 10:44:34;;;;;;;9.20;1.20;;;;;;;;;;5034468;28;20057;-57
2022/10/13 10:47:04;;;;;;;6.68;1.25;;;;;;;;;;5034804;28;20049;-57
2022/10/13 10:49:38;;;;;;;2.97;1.02;;;;;;;;;;5034709;28;20025;-58
2022/10/13 10:52:10;;;;;;;4.53;1.13;;;;;;;;;;5034023;28;20034;-57
2022/10/13 10:54:43;;;;;;;3.80;1.35;;;;;;;;;;5034178;28;20105;-58
2022/10/13 10:57:24;;;;;;;7.80;1.42;;;;;;;;;;5034065;28;20092;-56
2022/10/13 11:00:09;;;;;;;5.30;1.20;;;;;;;;;;5034287;28;20036;-57
2022/10/13 11:03:02;;;;;;;3.25;1.10;;;;;;;;;;5034428;28;20029;-57
2022/10/13 11:05:29;;;;;;;;;;;;;;;;;;5034853;28;20513;-54
2022/10/13 11:07:57;;;;;;;6.53;1.35;;;;;;;;;;5034523;28;20267;-55
2022/10/13 11:10:26;;;;;;;4.25;1.23;;;;;;;;;;5034512;28;20434;-54
2022/10/13 11:12:54;;;;;;;2.95;0.93;;;;;;;;;;5034273;28;20506;-58
2022/10/13 11:15:26;;;;;;;6.38;1.08;;;;;;;;;;5034164;28;20434;-57
2022/10/13 11:17:53;;;;;;;4.32;1.08;;;;;;;;;;5034102;28;20514;-57
2022/10/13 11:20:20;;;;;;;4.38;0.90;;;;;;;;;;5033841;28;20021;-57
2022/10/13 11:22:59;;;;;;;4.80;0.95;;;;;;;;;;5033953;28;20037;-58
2022/10/13 11:25:39;;;;;;;7.32;0.98;;;;;;;;;;5033927;28;20511;-57
2022/10/13 11:28:32;;;;;;;4.40;1.30;;;;;;;;;;5033786;28;20026;-57
2022/10/13 11:30:58;;;;;;;;;;;;;;;;;;4996999;28;20053;-57
2022/10/13 11:33:40;;;;;;;6.38;1.10;;;;;;;;;;5020539;28;20382;-57
2022/10/13 11:36:26;;;;;;;7.00;1.77;;;;;;;;;;5013442;28;20357;-57
2022/10/13 11:38:55;;;;;;;7.95;1.25;;;;;;;;;;5013845;28;20073;-58
2022/10/13 11:41:26;;;;;;;4.32;1.27;;;;;;;;;;5014079;28;20534;-58
2022/10/13 11:43:59;;;;;;;6.60;1.10;;;;;;;;;;5013731;28;20092;-58
2022/10/13 11:46:29;;;;;;;6.53;1.50;;;;;;;;;;5013381;28;20053;-56
2022/10/13 11:49:01;;;;;;;16.67;1.45;;;;;;;;;;5013686;28;20036;-54
2022/10/13 11:51:46;;;;;;;5.18;1.35;;;;;;;;;;5005046;28;20114;-58
2022/10/13 11:54:16;;;;;;;12.80;1.73;;;;;;;;;;4999256;28;20053;-57
2022/10/13 11:56:45;;;;;;;9.98;1.83;;;;;;;;;;4994189;28;20038;-56
2022/10/13 11:59:21;;;;;;;16.80;2.00;;;;;;;;;;4996574;28;20085;-55
2022/10/13 12:01:48;;;;;;;14.25;1.95;;;;;;;;;;5004276;28;20105;-50
2022/10/13 12:04:15;;;;;;;16.15;1.88;;;;;;;;;;5001796;28;20056;-55
2022/10/13 12:06:44;;;;;;;11.82;1.55;;;;;;;;;;5007512;28;20049;-56
2022/10/13 12:09:18;;;;;;;16.95;1.73;;;;;;;;;;5010079;28;20038;-56
2022/10/13 12:11:45;;;;;;;10.07;1.40;;;;;;;;;;5013463;28;20106;-55
2022/10/13 12:14:24;;;;;;;8.68;1.85;;;;;;;;;;5012947;28;20026;-55
2022/10/13 12:16:57;;;;;;;11.25;1.70;;;;;;;;;;5013281;28;20121;-54
2022/10/13 12:19:25;;;;;;;5.95;1.50;;;;;;;;;;5013284;28;20042;-52
2022/10/13 12:22:02;;;;;;;8.63;1.67;;;;;;;;;;5013596;28;20030;-54
2022/10/13 12:24:30;;;;;;;8.82;1.67;;;;;;;;;;5012524;28;20108;-56
2022/10/13 12:26:57;;;;;;;10.82;1.42;;;;;;;;;;5013246;28;20022;-56
2022/10/13 12:29:26;;;;;;;7.22;1.15;;;;;;;;;;5013060;28;20030;-53
2022/10/13 12:31:53;;;;;;;6.63;1.27;;;;;;;;;;5001162;28;20116;-56
2022/10/13 12:34:23;;;;;;;8.13;1.42;;;;;;;;;;5003832;28;20033;-55
2022/10/13 12:36:57;;;;;;;13.57;1.58;;;;;;;;;;5012139;28;20117;-55
2022/10/13 12:39:25;;;;;;;5.47;1.60;;;;;;;;;;5012175;28;20088;-56
2022/10/13 12:41:53;;;;;;;5.05;1.45;;;;;;;;;;5011488;28;20034;-55
2022/10/13 12:44:25;;;;;;;6.80;1.25;;;;;;;;;;5012581;28;20050;-53
2022/10/13 12:46:52;;;;;;;;;;;;;;;;;;4995427;28;20049;-54
2022/10/13 12:49:26;;;;;;;8.73;1.52;;;;;;;;;;5012074;28;19905;-57
2022/10/13 12:51:55;;;;;;;9.10;1.38;;;;;;;;;;5011977;28;20025;-58
2022/10/13 12:54:32;;;;;;;7.03;1.40;;;;;;;;;;4994614;28;20026;-59
2022/10/13 12:57:01;;;;;;;12.25;1.58;;;;;;;;;;5009449;28;20484;-56
2022/10/13 12:59:29;;;;;;;11.25;1.65;;;;;;;;;;5011938;28;20105;-54
2022/10/13 13:02:01;;;;;;;10.02;1.50;;;;;;;;;;5011729;28;20443;-52
2022/10/13 13:04:30;;;;;;;11.15;2.05;;;;;;;;;;5012388;28;20092;-55
2022/10/13 13:07:01;;;;;;;10.85;1.77;;;;;;;;;;5012606;28;20026;-55
2022/10/13 13:09:33;;;;;;;18.88;2.50;;;;;;;;;;5011879;28;20614;-57
2022/10/13 13:12:12;;;;;;;22.33;3.23;;;;;;;;;;5012545;28;20041;-58
2022/10/13 13:14:42;;;;;;;10.07;2.38;;;;;;;;;;5011891;28;20030;-57
2022/10/13 13:17:14;;;;;;;13.23;2.50;;;;;;;;;;5012138;28;20022;-58
2022/10/13 13:19:42;;;;;;;13.20;2.15;;;;;;;;;;4996251;28;20027;-57
2022/10/13 13:22:09;;;;;;;12.32;2.60;;;;;;;;;;4996768;28;20384;-56
2022/10/13 13:24:36;;;;;;;11.45;2.10;;;;;;;;;;4998273;28;20053;-56
2022/10/13 13:27:21;;;;;;;15.20;2.08;;;;;;;;;;4996848;28;20057;-57
2022/10/13 13:29:48;;;;;;;13.82;2.05;;;;;;;;;;4996064;28;20022;-56
2022/10/13 13:32:16;;;;;;;9.05;1.55;;;;;;;;;;4995811;28;20046;-57
2022/10/13 13:34:45;;;;;;;14.60;2.25;;;;;;;;;;5025636;28;20061;-57
2022/10/13 13:37:30;;;;;;;16.13;2.00;;;;;;;;;;5035846;28;20369;-54
2022/10/13 13:39:58;;;;;;;8.00;1.50;;;;;;;;;;5034789;28;20026;-55
2022/10/13 13:42:27;;;;;;;13.77;1.88;;;;;;;;;;5035758;28;20386;-56
2022/10/13 13:44:54;;;;;;;14.60;2.15;;;;;;;;;;5012108;28;20104;-52
2022/10/13 13:47:22;;;;;;;12.15;1.70;;;;;;;;;;5015970;28;20110;-57
2022/10/13 13:49:50;;;;;;;12.75;2.30;;;;;;;;;;5015202;28;20037;-54
2022/10/13 13:52:18;;;;;;;17.33;2.00;;;;;;;;;;5015621;28;20068;-52
2022/10/13 13:54:45;;;;;;;15.13;2.30;;;;;;;;;;5015637;28;20101;-57
2022/10/13 13:57:13;;;;;;;13.25;1.90;;;;;;;;;;5015182;28;20030;-57
2022/10/13 13:59:40;;;;;;;13.43;1.90;;;;;;;;;;5014386;28;20447;-58
2022/10/13 14:02:11;;;;;;;14.18;2.40;;;;;;;;;;5015661;28;20041;-55
2022/10/13 14:04:38;;;;;;;9.77;1.83;;;;;;;;;;5015471;28;20041;-59
2022/10/13 14:07:05;;;;;;;15.10;1.90;;;;;;;;;;5014799;28;20030;-58
2022/10/13 14:09:32;;;;;;;13.57;1.65;;;;;;;;;;5014892;28;20514;-59
2022/10/13 14:11:59;;;;;;;15.55;2.10;;;;;;;;;;5015166;28;20029;-58
2022/10/13 14:14:26;;;;;;;12.95;2.08;;;;;;;;;;5014832;28;20042;-59
2022/10/13 14:16:53;;;;;;;11.48;1.92;;;;;;;;;;5014579;28;20022;-57
2022/10/13 14:19:20;;;;;;;9.88;2.00;;;;;;;;;;4996926;28;20051;-58
2022/10/13 14:21:47;;;;;;;11.23;1.67;;;;;;;;;;5015028;28;20045;-54
2022/10/13 14:24:14;;;;;;;7.65;1.60;;;;;;;;;;5000066;28;20038;-54
2022/10/13 14:26:41;;;;;;;9.35;1.48;;;;;;;;;;4994946;28;20505;-52
2022/10/13 14:29:08;;;;;;;13.02;1.70;;;;;;;;;;4993305;28;20031;-53
2022/10/13 14:31:35;;;;;;;10.93;1.75;;;;;;;;;;4995439;28;20034;-58
2022/10/13 14:34:02;;;;;;;16.52;2.35;;;;;;;;;;5008378;28;20503;-57
2022/10/13 14:36:29;;;;;;;18.98;3.85;;;;;;;;;;5014369;28;20492;-58
2022/10/13 14:38:56;;;;;;;11.80;3.92;;;;;;;;;;5013515;28;20064;-56
2022/10/13 14:41:25;;;;;;;20.20;3.63;;;;;;;;;;5014677;28;20026;-57
2022/10/13 14:43:55;;;;;;;15.50;3.10;;;;;;;;;;5013786;28;20056;-56